Time;durP1;ratioP1;P1;durP2;ratioP2;P2;SDS_P1;SDS_P2;PMS_P1;PMS_P2;Temp;Humidity;BMP_temperature;BMP_pressure;BME280_temperature;BME280_humidity;BME280_pressure;Samples;Min_cycle;Max_cycle;Signal;HPM_P1;HPM_P2
2021/11/25 00:01:32;;;;;;;0.00;0.00;;;;;;;1.38;65.28;98771.84;103900;1352;137683;-89
2021/11/25 00:04:26;;;;;;;0.00;0.00;;;;;;;1.39;65.64;98768.30;104003;1352;137700;-89
2021/11/25 00:07:16;;;;;;;0.00;0.00;;;;;;;1.43;65.52;98761.85;103866;1353;138442;-89
2021/11/25 00:09:51;;;;;;;0.00;0.00;;;;;;;1.50;65.67;98758.72;104059;1352;23241;-88
2021/11/25 00:12:17;;;;;;;0.00;0.00;;;;;;;1.58;66.02;98757.51;103843;1354;139110;-88
2021/11/25 00:15:04;;;;;;;0.00;0.00;;;;;;;1.67;66.15;98756.66;103948;1354;138736;-89
2021/11/25 00:17:31;;;;;;;0.00;0.00;;;;;;;1.79;66.22;98753.65;103835;1354;137945;-88
2021/11/25 00:20:33;;;;;;;0.00;0.00;;;;;;;1.85;66.17;98752.05;104007;1352;137807;-89
2021/11/25 00:23:19;;;;;;;0.10;0.10;;;;;;;1.94;66.38;98751.75;103894;1351;137870;-88
2021/11/25 00:25:45;;;;;;;0.00;0.00;;;;;;;1.98;66.28;98754.77;103929;1351;137514;-88
2021/11/25 00:28:10;;;;;;;0.00;0.00;;;;;;;2.02;66.46;98752.34;103955;1354;137834;-87
2021/11/25 00:30:44;;;;;;;0.10;0.10;;;;;;;2.03;66.67;98752.14;103966;1351;137545;-88
2021/11/25 00:33:11;;;;;;;0.00;0.00;;;;;;;2.03;66.27;98749.64;103975;1351;137363;-88
2021/11/25 00:35:36;;;;;;;0.00;0.00;;;;;;;2.03;66.19;98751.51;103924;1351;137660;-88
2021/11/25 00:38:03;;;;;;;0.00;0.00;;;;;;;2.03;66.24;98751.45;104008;1351;137751;-88
2021/11/25 00:40:28;;;;;;;0.00;0.00;;;;;;;2.02;65.98;98757.92;103966;1351;138218;-88
2021/11/25 00:42:54;;;;;;;0.00;0.00;;;;;;;2.01;66.02;98757.02;103917;1351;138028;-87
2021/11/25 00:45:19;;;;;;;0.00;0.00;;;;;;;2.00;66.31;98757.40;104073;1351;23083;-87
2021/11/25 00:47:45;;;;;;;0.10;0.10;;;;;;;1.95;66.78;98752.94;103902;1352;137352;-87
2021/11/25 00:50:14;;;;;;;0.00;0.00;;;;;;;1.91;66.51;98749.95;103962;1351;137702;-87
2021/11/25 00:52:42;;;;;;;0.00;0.00;;;;;;;1.88;66.47;98749.69;103987;1351;137838;-87
2021/11/25 00:55:08;;;;;;;0.00;0.00;;;;;;;1.85;66.49;98752.30;103903;1351;137760;-87
2021/11/25 00:57:33;;;;;;;0.00;0.00;;;;;;;1.82;66.54;98749.44;104092;1352;22555;-87
2021/11/25 00:59:59;;;;;;;0.00;0.00;;;;;;;1.79;67.78;98745.52;103829;1354;137504;-87
2021/11/25 01:02:24;;;;;;;0.00;0.00;;;;;;;1.79;67.05;98746.54;103906;1354;137995;-87
2021/11/25 01:04:50;;;;;;;0.00;0.00;;;;;;;1.82;66.90;98738.35;103983;1354;138337;-87
2021/11/25 01:07:16;;;;;;;0.00;0.00;;;;;;;1.87;67.16;98737.73;103833;1354;138792;-88
2021/11/25 01:09:44;;;;;;;0.00;0.00;;;;;;;1.92;67.31;98742.11;104010;1354;22409;-88
2021/11/25 01:12:11;;;;;;;0.00;0.00;;;;;;;2.00;67.46;98730.67;103859;1354;137913;-88
2021/11/25 01:14:37;;;;;;;0.00;0.00;;;;;;;2.05;67.20;98725.02;103968;1354;137774;-88
2021/11/25 01:17:04;;;;;;;0.00;0.00;;;;;;;2.11;67.11;98718.09;103815;1353;138107;-88
2021/11/25 01:19:38;;;;;;;0.00;0.00;;;;;;;2.14;67.21;98721.69;103839;1354;138199;-88
2021/11/25 01:22:04;;;;;;;0.00;0.00;;;;;;;2.15;67.20;98716.45;103765;1353;138225;-89
2021/11/25 01:24:32;;;;;;;0.00;0.00;;;;;;;2.13;67.08;98712.13;103520;1354;137886;-88
2021/11/25 01:27:13;;;;;;;0.00;0.00;;;;;;;2.13;67.21;98713.87;103897;1353;137593;-88
2021/11/25 01:29:55;;;;;;;;;;;;;;;2.10;67.30;98710.60;103757;1353;138557;-88
2021/11/25 01:32:21;;;;;;;0.00;0.00;;;;;;;2.07;67.29;98709.32;103955;1354;124239;-88
2021/11/25 01:34:46;;;;;;;0.00;0.00;;;;;;;2.03;67.68;98708.43;103867;1353;137123;-88
2021/11/25 01:37:14;;;;;;;0.00;0.00;;;;;;;1.98;67.37;98709.11;103838;1353;138793;-88
2021/11/25 01:39:40;;;;;;;0.00;0.00;;;;;;;1.95;67.79;98708.65;103961;1355;22362;-88
2021/11/25 01:42:08;;;;;;;0.00;0.00;;;;;;;1.94;67.73;98712.77;103741;1353;137400;-88
2021/11/25 01:44:34;;;;;;;0.00;0.00;;;;;;;1.95;67.73;98713.04;103800;1353;137681;-88
2021/11/25 01:47:04;;;;;;;0.00;0.00;;;;;;;1.95;67.99;98709.74;103697;1353;137717;-88
2021/11/25 01:49:30;;;;;;;0.00;0.00;;;;;;;1.99;67.54;98702.64;103849;1345;138228;-87
2021/11/25 01:51:55;;;;;;;0.00;0.00;;;;;;;2.06;67.83;98700.23;103832;1354;138421;-87
2021/11/25 01:54:21;;;;;;;0.00;0.00;;;;;;;2.14;67.95;98699.65;103837;1354;138512;-87
2021/11/25 01:56:47;;;;;;;0.10;0.10;;;;;;;2.23;68.11;98698.43;103980;1353;137968;-87
2021/11/25 01:59:15;;;;;;;0.00;0.00;;;;;;;2.34;68.27;98693.30;103819;1354;137935;-88
2021/11/25 02:02:21;;;;;;;0.00;0.00;;;;;;;2.43;68.22;98688.10;103942;1354;137588;-88
2021/11/25 02:05:42;;;;;;;0.00;0.00;;;;;;;2.54;68.10;98683.45;103881;1352;137947;-89
2021/11/25 02:08:56;;;;;;;0.00;0.00;;;;;;;2.58;67.70;98677.36;104005;1352;137469;-89
2021/11/25 02:12:21;;;;;;;0.00;0.00;;;;;;;2.62;67.62;98679.32;103886;1354;137975;-89
2021/11/25 02:15:10;;;;;;;0.00;0.00;;;;;;;2.65;67.49;98673.83;103984;1354;137531;-88
2021/11/25 02:17:40;;;;;;;0.00;0.00;;;;;;;2.66;67.60;98670.16;103822;1354;138409;-88
2021/11/25 02:20:09;;;;;;;0.10;0.10;;;;;;;2.66;67.33;98663.52;103914;1354;137718;-88
2021/11/25 02:23:01;;;;;;;0.00;0.00;;;;;;;2.67;67.34;98651.61;103950;1352;137679;-88
2021/11/25 02:25:30;;;;;;;0.00;0.00;;;;;;;2.67;67.18;98646.83;103840;1352;138063;-88
2021/11/25 02:28:04;;;;;;;0.00;0.00;;;;;;;2.65;67.13;98635.71;103912;1353;138386;-88
2021/11/25 02:30:54;;;;;;;0.00;0.00;;;;;;;2.64;67.40;98631.23;103930;1354;137678;-88
2021/11/25 02:33:48;;;;;;;0.00;0.00;;;;;;;2.62;67.35;98625.63;99877;1354;138253;-89
2021/11/25 02:37:13;;;;;;;0.00;0.00;;;;;;;2.60;67.59;98621.79;103892;1354;137458;-90
2021/11/25 02:40:41;;;;;;;0.00;0.00;;;;;;;2.58;67.73;98620.01;103973;1352;137817;-89
2021/11/25 02:44:07;;;;;;;0.00;0.00;;;;;;;2.57;67.91;98616.81;103884;1352;137755;-89
2021/11/25 02:47:14;;;;;;;0.00;0.00;;;;;;;2.59;67.60;98618.16;103975;1352;138136;-88
2021/11/25 02:50:03;;;;;;;0.00;0.00;;;;;;;2.66;67.73;98614.52;103839;1354;138984;-88
2021/11/25 02:52:32;;;;;;;0.00;0.00;;;;;;;2.76;67.66;98609.91;103975;1352;138718;-88
2021/11/25 02:55:08;;;;;;;0.00;0.00;;;;;;;2.86;67.92;98606.66;103764;1354;138138;-89
2021/11/25 02:57:37;;;;;;;0.00;0.00;;;;;;;2.96;68.10;98600.89;104031;1354;23208;-89
2021/11/25 03:00:27;;;;;;;0.00;0.00;;;;;;;3.03;67.68;98597.59;103868;1352;138346;-89
2021/11/25 03:03:48;;;;;;;0.00;0.00;;;;;;;3.12;67.36;98590.73;103973;1354;137448;-88
2021/11/25 03:07:02;;;;;;;0.00;0.00;;;;;;;3.17;67.32;98583.22;103860;1353;137712;-88
2021/11/25 03:09:32;;;;;;;0.00;0.00;;;;;;;3.19;67.12;98576.06;103974;1354;137034;-89
2021/11/25 03:12:29;;;;;;;0.00;0.00;;;;;;;3.18;67.02;98581.33;103837;1354;138609;-89
2021/11/25 03:14:54;;;;;;;0.00;0.00;;;;;;;3.17;66.90;98578.54;103975;1353;137482;-88
2021/11/25 03:17:21;;;;;;;0.00;0.00;;;;;;;3.15;67.22;98571.45;103843;1354;138052;-87
2021/11/25 03:19:47;;;;;;;0.00;0.00;;;;;;;3.12;66.87;98569.24;103963;1354;136477;-87
2021/11/25 03:22:13;;;;;;;0.00;0.00;;;;;;;3.09;66.87;98569.44;103946;1354;137125;-88
2021/11/25 03:24:39;;;;;;;0.00;0.00;;;;;;;3.07;67.20;98564.79;103895;1354;137583;-88
2021/11/25 03:27:07;;;;;;;0.00;0.00;;;;;;;3.06;67.01;98558.13;103951;1354;138410;-88
2021/11/25 03:29:33;;;;;;;0.00;0.00;;;;;;;3.03;67.03;98556.11;103798;1354;138323;-88
2021/11/25 03:32:00;;;;;;;0.00;0.00;;;;;;;3.02;67.08;98552.15;103985;1352;137858;-88
2021/11/25 03:34:26;;;;;;;0.00;0.00;;;;;;;3.00;67.27;98553.36;103965;1354;137719;-87
2021/11/25 03:36:52;;;;;;;0.00;0.00;;;;;;;2.99;67.09;98544.69;103852;1354;137635;-87
2021/11/25 03:39:17;;;;;;;0.00;0.00;;;;;;;2.99;66.96;98550.59;104054;1353;22340;-88
2021/11/25 03:41:52;;;;;;;0.00;0.00;;;;;;;3.03;67.26;98541.94;103826;1354;139099;-88
2021/11/25 03:44:17;;;;;;;0.00;0.00;;;;;;;3.07;67.42;98543.30;103928;1354;138611;-88
2021/11/25 03:46:43;;;;;;;0.00;0.00;;;;;;;3.11;67.33;98539.06;103932;1353;138236;-88
2021/11/25 03:49:09;;;;;;;0.00;0.00;;;;;;;3.13;67.24;98539.88;103816;1354;138492;-88
2021/11/25 03:51:35;;;;;;;0.00;0.00;;;;;;;3.15;67.06;98534.30;104025;1352;22342;-88
2021/11/25 03:54:01;;;;;;;0.00;0.00;;;;;;;3.14;67.22;98531.90;103860;1354;137829;-88
2021/11/25 03:56:28;;;;;;;0.00;0.00;;;;;;;3.12;67.17;98526.73;103936;1354;137795;-88
2021/11/25 03:58:54;;;;;;;0.10;0.10;;;;;;;3.09;66.86;98518.95;103897;1354;138293;-89
2021/11/25 04:01:23;;;;;;;0.00;0.00;;;;;;;3.06;66.87;98516.70;103669;1354;138531;-88
2021/11/25 04:03:53;;;;;;;0.00;0.00;;;;;;;3.03;66.88;98513.70;103979;1354;22345;-88
2021/11/25 04:06:19;;;;;;;0.00;0.00;;;;;;;3.00;66.95;98508.36;103719;1354;137918;-87
2021/11/25 04:08:45;;;;;;;0.00;0.00;;;;;;;2.97;67.30;98509.55;103787;1354;138631;-87
2021/11/25 04:11:11;;;;;;;0.00;0.00;;;;;;;2.93;67.24;98504.27;103954;1354;138099;-88
2021/11/25 04:13:37;;;;;;;0.00;0.00;;;;;;;2.89;66.99;98502.54;103717;1356;138094;-86
2021/11/25 04:16:03;;;;;;;0.00;0.00;;;;;;;2.87;67.16;98500.98;103899;1354;138429;-87
2021/11/25 04:19:09;;;;;;;0.10;0.10;;;;;;;2.84;67.17;98498.26;103396;1356;137479;-89
2021/11/25 04:21:36;;;;;;;0.00;0.00;;;;;;;2.79;67.56;98505.38;103961;1354;138056;-88
2021/11/25 04:24:22;;;;;;;0.00;0.00;;;;;;;2.78;66.97;98500.59;103915;1354;138909;-88
2021/11/25 04:27:10;;;;;;;0.00;0.00;;;;;;;2.80;67.38;98501.05;103932;1354;138805;-88
2021/11/25 04:30:31;;;;;;;0.00;0.00;;;;;;;2.83;67.52;98500.05;103796;1354;138637;-89
2021/11/25 04:36:25;;;;;;;0.10;0.10;;;;;;;2.83;67.36;98497.66;103848;1353;137638;-89
2021/11/25 04:39:30;;;;;;;0.10;0.10;;;;;;;2.81;67.06;98491.48;103977;1354;138066;-88
2021/11/25 04:42:51;;;;;;;0.00;0.00;;;;;;;2.78;67.22;98486.45;103853;1354;137844;-89
2021/11/25 04:46:00;;;;;;;0.00;0.00;;;;;;;2.73;66.90;98487.49;103966;1351;137943;-89
2021/11/25 04:49:06;;;;;;;0.10;0.10;;;;;;;2.68;67.15;98487.29;103839;1354;137977;-89
2021/11/25 04:52:12;;;;;;;0.00;0.00;;;;;;;2.61;66.97;98477.98;104079;1354;23069;-89
2021/11/25 04:54:58;;;;;;;0.00;0.00;;;;;;;2.54;67.30;98477.57;103843;1353;137962;-88
2021/11/25 04:57:28;;;;;;;0.00;0.00;;;;;;;2.50;66.91;98480.23;104020;1353;22315;-89
2021/11/25 05:00:17;;;;;;;0.10;0.10;;;;;;;2.45;66.91;98479.04;103860;1352;137719;-89
2021/11/25 05:02:50;;;;;;;0.00;0.00;;;;;;;2.42;67.53;98477.41;103928;1354;138233;-89
2021/11/25 05:05:59;;;;;;;0.00;0.00;;;;;;;2.41;67.13;98474.64;103863;1352;138172;-89
2021/11/25 05:09:13;;;;;;;0.00;0.00;;;;;;;2.38;67.30;98471.95;103992;1353;138056;-89
2021/11/25 05:12:02;;;;;;;0.10;0.10;;;;;;;2.37;67.27;98468.61;103890;1353;138644;-89
2021/11/25 05:14:48;;;;;;;0.00;0.00;;;;;;;2.39;67.04;98465.43;103918;1353;138616;-89
2021/11/25 05:17:36;;;;;;;0.00;0.00;;;;;;;2.44;67.39;98458.08;103845;1353;138981;-89
2021/11/25 05:20:22;;;;;;;0.00;0.00;;;;;;;2.51;67.47;98455.42;103811;1354;138272;-89
2021/11/25 05:23:28;;;;;;;0.00;0.00;;;;;;;2.55;67.71;98452.76;103973;1354;138275;-89
2021/11/25 05:26:49;;;;;;;0.10;0.10;;;;;;;2.61;67.40;98455.08;103884;1353;138051;-89
2021/11/25 05:29:36;;;;;;;0.10;0.10;;;;;;;2.65;66.96;98454.36;103995;1353;138071;-88
2021/11/25 05:32:05;;;;;;;0.00;0.00;;;;;;;2.67;66.81;98457.35;103847;1354;137968;-88
2021/11/25 05:34:35;;;;;;;0.00;0.00;;;;;;;2.69;66.66;98451.89;103954;1354;138320;-88
2021/11/25 05:37:21;;;;;;;0.00;0.00;;;;;;;2.69;66.59;98455.34;103856;1353;138617;-88
2021/11/25 05:40:26;;;;;;;0.00;0.00;;;;;;;2.69;66.62;98455.02;104111;1352;22446;-90
2021/11/25 05:43:52;;;;;;;0.00;0.00;;;;;;;2.69;66.74;98455.55;103870;1354;137408;-90
2021/11/25 05:47:19;;;;;;;0.00;0.00;;;;;;;2.69;66.72;98451.41;103967;1353;138120;-90
2021/11/25 05:50:44;;;;;;;0.10;0.10;;;;;;;2.68;66.63;98448.63;103872;1354;138099;-90
2021/11/25 05:53:30;;;;;;;0.00;0.00;;;;;;;2.67;66.76;98439.86;103851;1353;138092;-89
2021/11/25 05:55:59;;;;;;;0.00;0.00;;;;;;;2.67;66.69;98441.07;103880;1352;138382;-88
2021/11/25 05:58:24;;;;;;;0.00;0.00;;;;;;;2.68;66.70;98441.83;103935;1353;137433;-89
2021/11/25 06:00:50;;;;;;;0.00;0.00;;;;;;;2.71;67.12;98441.11;103931;1354;138037;-88
2021/11/25 06:03:17;;;;;;;0.00;0.00;;;;;;;2.78;67.05;98441.94;103940;1354;138694;-88
2021/11/25 06:05:43;;;;;;;0.00;0.00;;;;;;;2.84;67.44;98443.10;103935;1354;138629;-88
2021/11/25 06:08:09;;;;;;;0.00;0.00;;;;;;;2.92;67.63;98447.23;103850;1354;138969;-87
2021/11/25 06:10:35;;;;;;;0.00;0.00;;;;;;;2.96;67.48;98446.05;103938;1354;138500;-87
2021/11/25 06:13:02;;;;;;;0.00;0.00;;;;;;;3.00;67.29;98444.63;103845;1351;138504;-88
2021/11/25 06:16:07;;;;;;;0.00;0.00;;;;;;;3.02;67.22;98445.64;104042;1354;22425;-89
2021/11/25 06:19:32;;;;;;;0.00;0.00;;;;;;;3.02;66.86;98438.30;103853;1354;137544;-89
2021/11/25 06:22:42;;;;;;;0.00;0.00;;;;;;;3.01;66.93;98435.48;103970;1353;138107;-90
2021/11/25 06:25:35;;;;;;;0.00;0.00;;;;;;;2.99;66.88;98435.30;103853;1354;139337;-90
2021/11/25 06:28:22;;;;;;;0.10;0.10;;;;;;;2.98;66.97;98434.77;103926;1354;138375;-90
2021/11/25 06:31:47;;;;;;;0.00;0.00;;;;;;;2.96;66.95;98434.23;103885;1352;137764;-90
2021/11/25 06:35:13;;;;;;;0.00;0.00;;;;;;;2.94;66.90;98437.31;103913;1339;138172;-90
2021/11/25 06:38:38;;;;;;;0.00;0.00;;;;;;;2.93;67.31;98432.20;103695;1351;138277;-90
2021/11/25 06:42:04;;;;;;;0.00;0.00;;;;;;;3.00;67.27;98435.42;103942;1352;138703;-90
2021/11/25 06:45:29;;;;;;;0.00;0.00;;;;;;;3.06;67.69;98438.33;103896;1345;138041;-90
2021/11/25 06:48:43;;;;;;;0.10;0.10;;;;;;;3.12;67.51;98435.21;103954;1351;137809;-90
2021/11/25 06:52:09;;;;;;;0.10;0.10;;;;;;;3.17;67.11;98432.73;103953;1349;137540;-90
2021/11/25 06:55:30;;;;;;;0.10;0.10;;;;;;;3.18;67.02;98430.57;103852;1348;138140;-90
2021/11/25 06:58:09;;;;;;;0.10;0.10;;;;;;;3.20;66.87;98435.41;103952;1352;138134;-90
2021/11/25 07:01:16;;;;;;;0.00;0.00;;;;;;;3.19;66.65;98431.70;104088;1354;22367;-90
2021/11/25 07:04:41;;;;;;;0.00;0.00;;;;;;;3.19;66.59;98429.98;103952;1352;137507;-90
2021/11/25 07:07:47;;;;;;;0.00;0.00;;;;;;;3.16;66.62;98433.01;103882;1353;138218;-90
2021/11/25 07:11:12;;;;;;;0.00;0.00;;;;;;;3.13;66.43;98426.45;103972;1354;137824;-90
2021/11/25 07:14:38;;;;;;;0.10;0.10;;;;;;;3.10;66.63;98419.98;103900;1353;137779;-90
2021/11/25 07:18:03;;;;;;;0.00;0.00;;;;;;;3.07;66.39;98414.29;103946;1354;137741;-90
2021/11/25 07:21:29;;;;;;;0.00;0.00;;;;;;;3.08;66.31;98419.83;103896;1354;137819;-90
2021/11/25 07:24:56;;;;;;;0.00;0.00;;;;;;;3.16;66.61;98425.17;104003;1354;138667;-90
2021/11/25 07:27:58;;;;;;;0.00;0.00;;;;;;;3.26;66.99;98421.49;104001;1352;138228;-90
2021/11/25 07:31:30;;;;;;;0.00;0.00;;;;;;;3.35;66.93;98424.24;103968;1354;137524;-90
2021/11/25 07:34:36;;;;;;;0.00;0.00;;;;;;;3.45;66.80;98428.07;103993;1352;137918;-90
2021/11/25 07:38:03;;;;;;;0.00;0.00;;;;;;;3.52;66.77;98421.05;103966;1347;137968;-90
2021/11/25 07:41:09;;;;;;;0.10;0.10;;;;;;;3.57;67.38;98429.95;103890;1347;137823;-90
2021/11/25 07:44:34;;;;;;;0.00;0.00;;;;;;;3.60;67.18;98412.88;103980;1352;137621;-89
2021/11/25 07:48:00;;;;;;;0.00;0.00;;;;;;;3.61;67.27;98411.77;103977;1352;137763;-90
2021/11/25 07:51:25;;;;;;;0.00;0.00;;;;;;;3.62;67.57;98408.90;103890;1351;137797;-90
2021/11/25 07:54:34;;;;;;;0.00;0.00;;;;;;;3.65;68.00;98407.89;103987;1350;137914;-90
2021/11/25 07:57:23;;;;;;;0.00;0.00;;;;;;;3.68;68.09;98397.63;103850;1353;138137;-89
2021/11/25 08:00:11;;;;;;;0.00;0.00;;;;;;;3.70;68.92;98399.75;103944;1353;137565;-90
2021/11/25 08:03:16;;;;;;;0.00;0.00;;;;;;;3.72;68.27;98389.36;103868;1354;138526;-89
2021/11/25 08:06:42;;;;;;;0.00;0.00;;;;;;;3.72;68.43;98386.54;103895;1348;137978;-90
2021/11/25 08:09:48;;;;;;;0.10;0.10;;;;;;;3.74;68.93;98385.80;103924;1354;136594;-90
2021/11/25 08:13:13;;;;;;;0.00;0.00;;;;;;;3.75;68.65;98374.79;103992;1349;137399;-89
2021/11/25 08:16:38;;;;;;;0.10;0.10;;;;;;;3.80;68.12;98371.27;103880;1354;138352;-90
2021/11/25 08:19:25;;;;;;;0.00;0.00;;;;;;;3.85;68.27;98369.73;103996;1352;138043;-89
2021/11/25 08:22:50;;;;;;;0.00;0.00;;;;;;;3.89;68.18;98368.50;103854;1352;138167;-90
2021/11/25 08:26:11;;;;;;;0.10;0.10;;;;;;;4.02;67.74;98362.76;103972;1352;137488;-89
2021/11/25 08:29:17;;;;;;;0.00;0.00;;;;;;;4.13;68.20;98360.10;103889;1351;137893;-89
2021/11/25 08:32:27;;;;;;;0.00;0.00;;;;;;;4.24;67.93;98353.48;104002;1350;137999;-90
2021/11/25 08:35:53;;;;;;;0.10;0.10;;;;;;;4.32;67.67;98350.21;103894;1345;138134;-90
2021/11/25 08:39:18;;;;;;;0.00;0.00;;;;;;;4.42;67.62;98351.10;103979;1353;137836;-90
2021/11/25 08:42:44;;;;;;;0.00;0.00;;;;;;;4.52;67.15;98345.86;103849;1346;137824;-90
2021/11/25 08:46:10;;;;;;;0.10;0.10;;;;;;;4.60;66.85;98339.60;103953;1354;137656;-90
2021/11/25 08:49:31;;;;;;;0.00;0.00;;;;;;;4.65;66.70;98337.98;103970;1353;137231;-90
2021/11/25 08:52:37;;;;;;;0.00;0.00;;;;;;;4.74;65.98;98330.65;103844;1354;138338;-90
2021/11/25 08:56:05;;;;;;;0.10;0.10;;;;;;;4.79;65.49;98326.43;103925;1354;137958;-90
2021/11/25 08:59:29;;;;;;;0.10;0.10;;;;;;;4.85;64.82;98323.67;103867;1353;137668;-90
2021/11/25 09:02:54;;;;;;;0.00;0.00;;;;;;;4.85;64.28;98317.16;103968;1351;137819;-90
2021/11/25 09:06:20;;;;;;;0.10;0.10;;;;;;;4.87;64.53;98318.50;103879;1352;138002;-90
2021/11/25 09:09:45;;;;;;;0.10;0.10;;;;;;;4.92;64.39;98316.50;103969;1350;137763;-90
2021/11/25 09:13:11;;;;;;;0.00;0.00;;;;;;;4.98;64.67;98316.86;103854;1348;139162;-90
2021/11/25 09:16:37;;;;;;;0.10;0.10;;;;;;;5.07;64.93;98317.02;103955;1351;138398;-90
2021/11/25 09:20:03;;;;;;;0.00;0.00;;;;;;;5.16;64.79;98319.16;103941;1352;137827;-90
2021/11/25 09:23:28;;;;;;;0.00;0.00;;;;;;;5.26;64.90;98309.29;103857;1352;138187;-90
2021/11/25 09:26:54;;;;;;;0.10;0.10;;;;;;;5.44;64.78;98301.39;103978;1351;138421;-90
2021/11/25 09:30:19;;;;;;;0.00;0.00;;;;;;;5.60;64.60;98305.77;103855;1352;138406;-90
2021/11/25 09:33:29;;;;;;;0.10;0.10;;;;;;;5.74;64.64;98306.40;103992;1352;137921;-90
2021/11/25 09:36:54;;;;;;;0.00;0.00;;;;;;;5.85;64.72;98301.94;103861;1347;137910;-90
2021/11/25 09:40:13;;;;;;;0.00;0.00;;;;;;;5.95;64.53;98299.16;103968;1347;137628;-90
2021/11/25 09:43:33;;;;;;;0.10;0.10;;;;;;;6.02;64.51;98294.19;103890;1354;137534;-90
2021/11/25 09:46:59;;;;;;;0.00;0.00;;;;;;;5.99;64.28;98289.61;103985;1352;138101;-91
2021/11/25 09:50:25;;;;;;;0.00;0.00;;;;;;;5.91;64.43;98290.73;103980;1352;137564;-90
2021/11/25 09:53:32;;;;;;;0.00;0.00;;;;;;;5.79;64.38;98293.39;103972;1352;137733;-90
2021/11/25 09:56:58;;;;;;;0.00;0.00;;;;;;;5.73;64.43;98279.76;103969;1349;137768;-90
2021/11/25 10:00:24;;;;;;;0.10;0.10;;;;;;;5.71;64.44;98259.85;103870;1352;137968;-90
2021/11/25 10:03:50;;;;;;;0.00;0.00;;;;;;;5.73;64.44;98256.02;103986;1351;137495;-90
2021/11/25 10:07:15;;;;;;;0.10;0.10;;;;;;;5.69;64.55;98253.77;103895;1352;138266;-90
2021/11/25 10:10:30;;;;;;;0.10;0.10;;;;;;;5.62;64.91;98252.70;103988;1352;137916;-90
2021/11/25 10:13:55;;;;;;;0.00;0.00;;;;;;;5.55;64.99;98256.59;103904;1351;137764;-90
2021/11/25 10:17:21;;;;;;;0.10;0.10;;;;;;;5.55;65.11;98241.44;103794;1351;138107;-90
2021/11/25 10:20:47;;;;;;;0.00;0.00;;;;;;;5.67;65.15;98227.72;103895;1351;138408;-90
2021/11/25 10:24:12;;;;;;;0.00;0.00;;;;;;;5.75;65.17;98219.95;104010;1351;138171;-90
2021/11/25 10:27:41;;;;;;;0.00;0.00;;;;;;;5.83;65.01;98209.14;104012;1351;137774;-90
2021/11/25 10:31:07;;;;;;;0.10;0.10;;;;;;;5.83;64.60;98205.93;103886;1351;137614;-90
2021/11/25 10:34:38;;;;;;;0.10;0.10;;;;;;;5.87;64.59;98205.42;99839;1352;137469;-90
2021/11/25 10:38:23;;;;;;;0.10;0.10;;;;;;;5.93;64.46;98193.03;103851;1354;138024;-91
2021/11/25 10:41:35;;;;;;;0.10;0.10;;;;;;;6.01;64.37;98192.68;104000;1352;137644;-90
2021/11/25 10:45:00;;;;;;;0.10;0.10;;;;;;;6.08;63.97;98187.10;103872;1354;137711;-90
2021/11/25 10:48:36;;;;;;;0.10;0.10;;;;;;;6.12;63.81;98179.41;104001;1351;137817;-90
2021/11/25 10:51:43;;;;;;;0.10;0.10;;;;;;;6.15;63.69;98180.98;103902;1351;137567;-90
2021/11/25 10:55:09;;;;;;;0.00;0.00;;;;;;;6.19;63.65;98186.82;104011;1349;137443;-90
2021/11/25 10:58:16;;;;;;;0.10;0.10;;;;;;;6.14;63.61;98180.84;103993;1350;137754;-90
2021/11/25 11:01:53;;;;;;;0.10;0.10;;;;;;;6.16;63.33;98180.23;103957;1354;137469;-89
2021/11/25 11:05:25;;;;;;;0.10;0.10;;;;;;;6.21;63.01;98163.44;103932;1352;139042;-90
2021/11/25 11:09:00;;;;;;;0.10;0.10;;;;;;;6.22;62.73;98158.83;103859;1351;137954;-90
2021/11/25 11:12:42;;;;;;;;;;;;;;;;;;;;;
2021/11/25 11:19:37;;;;;;;0.00;0.00;;;;;;;6.29;62.13;98138.00;103788;1352;138320;-90
2021/11/25 11:23:09;;;;;;;0.00;0.00;;;;;;;6.29;62.09;98137.14;103826;1347;137854;-90
2021/11/25 11:26:15;;;;;;;0.00;0.00;;;;;;;6.31;61.88;98125.93;103970;1352;138157;-90
2021/11/25 11:29:42;;;;;;;0.10;0.10;;;;;;;6.30;61.55;98123.48;103888;1354;137763;-90
2021/11/25 11:33:08;;;;;;;0.00;0.00;;;;;;;6.26;61.73;98122.27;103937;1352;137774;-90
2021/11/25 11:36:34;;;;;;;0.00;0.00;;;;;;;6.26;61.80;98121.67;103947;1351;137735;-90
2021/11/25 11:39:59;;;;;;;0.00;0.00;;;;;;;6.26;62.13;98113.23;103841;1350;137570;-90
2021/11/25 11:43:25;;;;;;;0.10;0.10;;;;;;;6.26;62.54;98108.79;103955;1352;138344;-90
2021/11/25 11:46:51;;;;;;;0.00;0.00;;;;;;;6.32;62.56;98098.39;103879;1351;137799;-90
2021/11/25 11:50:23;;;;;;;0.10;0.10;;;;;;;6.40;62.48;98090.10;103993;1354;137835;-90
2021/11/25 11:53:56;;;;;;;0.00;0.00;;;;;;;6.44;62.69;98091.20;103877;1353;137780;-90
2021/11/25 11:57:20;;;;;;;0.00;0.00;;;;;;;6.45;63.12;98092.10;103951;1347;137659;-90
2021/11/25 12:00:58;;;;;;;0.10;0.10;;;;;;;6.51;63.33;98091.39;103967;1350;138445;-90
2021/11/25 12:04:30;;;;;;;0.00;0.00;;;;;;;6.58;63.31;98090.27;103674;1353;138630;-91
2021/11/25 12:08:05;;;;;;;0.10;0.10;;;;;;;6.66;63.25;98090.69;103998;1351;138479;-88
2021/11/25 12:11:29;;;;;;;0.00;0.00;;;;;;;6.72;63.15;98095.69;103864;1351;137806;-88
2021/11/25 12:14:55;;;;;;;0.10;0.10;;;;;;;6.69;62.69;98080.95;103704;1352;138236;-91
2021/11/25 12:18:21;;;;;;;0.00;0.00;;;;;;;6.53;62.87;98070.59;103856;1354;139024;-91
2021/11/25 12:21:49;;;;;;;0.10;0.10;;;;;;;6.38;63.20;98067.98;103971;1352;137857;-90
2021/11/25 12:25:24;;;;;;;0.10;0.10;;;;;;;6.30;63.59;98062.47;103949;1353;137820;-90
2021/11/25 12:28:58;;;;;;;0.10;0.10;;;;;;;6.29;63.41;98057.77;103862;1351;138791;-90
2021/11/25 12:32:47;;;;;;;0.10;0.10;;;;;;;6.30;63.29;98054.83;103981;1351;137674;-88
2021/11/25 12:36:17;;;;;;;0.00;0.00;;;;;;;6.31;63.15;98051.69;103274;1361;137996;-89
2021/11/25 12:39:55;;;;;;;0.10;0.10;;;;;;;6.28;63.80;98057.20;103386;1357;137868;-89
2021/11/25 12:43:21;;;;;;;0.10;0.10;;;;;;;6.24;63.82;98046.94;104065;1354;23091;-89
2021/11/25 12:46:51;;;;;;;0.10;0.10;;;;;;;6.22;63.95;98040.45;103959;1354;137797;-89
2021/11/25 12:50:19;;;;;;;0.10;0.10;;;;;;;6.24;64.13;98041.69;103911;1353;138210;-89
2021/11/25 12:53:56;;;;;;;0.10;0.10;;;;;;;6.19;64.14;98027.96;103855;1351;138869;-89
2021/11/25 12:57:22;;;;;;;0.10;0.10;;;;;;;6.21;64.24;98018.52;103986;1351;138655;-89
2021/11/25 13:00:48;;;;;;;0.10;0.10;;;;;;;6.27;64.08;98015.98;103903;1350;138298;-89
2021/11/25 13:04:15;;;;;;;0.10;0.10;;;;;;;6.31;64.06;98009.20;103987;1351;138360;-89
2021/11/25 13:07:40;;;;;;;0.10;0.10;;;;;;;6.34;63.94;98009.79;103861;1350;138396;-89
2021/11/25 13:11:06;;;;;;;0.10;0.10;;;;;;;6.34;63.82;98001.30;103981;1353;137865;-89
2021/11/25 13:14:34;;;;;;;0.00;0.00;;;;;;;6.32;64.04;98001.21;103907;1352;137811;-89
2021/11/25 13:18:00;;;;;;;0.10;0.10;;;;;;;6.32;63.98;98001.92;103896;1352;137833;-89
2021/11/25 13:21:26;;;;;;;0.00;0.00;;;;;;;6.31;64.12;97993.36;103967;1354;138219;-90
2021/11/25 13:25:03;;;;;;;0.10;0.10;;;;;;;6.35;63.81;97989.78;103840;1353;138472;-88
2021/11/25 13:28:29;;;;;;;0.00;0.00;;;;;;;6.27;64.13;97986.20;103998;1352;136960;-89
2021/11/25 13:32:01;;;;;;;0.10;0.10;;;;;;;6.18;64.18;97973.89;103813;1354;138222;-89
2021/11/25 13:35:30;;;;;;;0.00;0.00;;;;;;;6.11;64.12;97958.74;103949;1352;137700;-89
2021/11/25 13:38:56;;;;;;;0.20;0.20;;;;;;;6.08;64.41;97953.13;103843;1353;137714;-89
2021/11/25 13:42:22;;;;;;;0.00;0.00;;;;;;;6.08;64.32;97951.20;103993;1354;137661;-89
2021/11/25 13:45:48;;;;;;;0.10;0.10;;;;;;;6.08;64.46;97945.55;103977;1353;137414;-88
2021/11/25 13:49:14;;;;;;;0.10;0.10;;;;;;;6.10;64.16;97940.48;103898;1352;137897;-89
2021/11/25 13:52:42;;;;;;;0.10;0.10;;;;;;;6.18;64.24;97942.61;103992;1350;137543;-89
2021/11/25 13:56:11;;;;;;;0.10;0.10;;;;;;;6.29;64.23;97946.40;103893;1351;138827;-88
2021/11/25 13:59:35;;;;;;;0.10;0.10;;;;;;;6.40;64.14;97935.80;103949;1349;138346;-90
2021/11/25 14:03:01;;;;;;;0.10;0.10;;;;;;;6.48;63.83;97931.76;103909;1351;138146;-89
2021/11/25 14:06:27;;;;;;;0.00;0.00;;;;;;;6.60;63.71;97932.67;104005;1351;138276;-89
2021/11/25 14:09:53;;;;;;;0.10;0.10;;;;;;;6.92;63.22;97927.63;103961;1351;138422;-89
2021/11/25 14:13:19;;;;;;;0.10;0.10;;;;;;;7.14;62.86;97920.03;103961;1351;137758;-90